sensor_id;sensor_type;location;lat;lon;timestamp;P1;durP1;ratioP1;P2;durP2;ratioP2
41629;SDS011;27322;49.488;8.480;2023-02-03T00:02:00;7.82;;;2.67;;
41629;SDS011;27322;49.488;8.480;2023-02-03T00:04:25;8.48;;;3.00;;
41629;SDS011;27322;49.488;8.480;2023-02-03T00:06:51;10.02;;;2.75;;
41629;SDS011;27322;49.488;8.480;2023-02-03T00:09:17;5.35;;;2.55;;
41629;SDS011;27322;49.488;8.480;2023-02-03T00:11:43;8.68;;;2.83;;
41629;SDS011;27322;49.488;8.480;2023-02-03T00:14:09;8.23;;;2.78;;
41629;SDS011;27322;49.488;8.480;2023-02-03T00:16:34;5.50;;;2.70;;
41629;SDS011;27322;49.488;8.480;2023-02-03T00:19:00;8.07;;;2.60;;
41629;SDS011;27322;49.488;8.480;2023-02-03T00:21:25;5.72;;;2.60;;
41629;SDS011;27322;49.488;8.480;2023-02-03T00:23:51;6.88;;;2.53;;
41629;SDS011;27322;49.488;8.480;2023-02-03T00:26:18;8.35;;;2.70;;
41629;SDS011;27322;49.488;8.480;2023-02-03T00:28:44;7.95;;;2.83;;
41629;SDS011;27322;49.488;8.480;2023-02-03T00:31:13;8.57;;;2.45;;
41629;SDS011;27322;49.488;8.480;2023-02-03T00:33:43;6.57;;;2.70;;
41629;SDS011;27322;49.488;8.480;2023-02-03T00:36:09;6.07;;;2.25;;
41629;SDS011;27322;49.488;8.480;2023-02-03T00:38:35;7.10;;;2.88;;
41629;SDS011;27322;49.488;8.480;2023-02-03T00:41:01;5.13;;;2.63;;
41629;SDS011;27322;49.488;8.480;2023-02-03T00:43:27;6.82;;;3.10;;
41629;SDS011;27322;49.488;8.480;2023-02-03T00:45:53;8.20;;;2.50;;
41629;SDS011;27322;49.488;8.480;2023-02-03T00:48:18;7.78;;;2.80;;
41629;SDS011;27322;49.488;8.480;2023-02-03T00:50:47;7.45;;;2.78;;
41629;SDS011;27322;49.488;8.480;2023-02-03T00:53:13;6.60;;;2.67;;
41629;SDS011;27322;49.488;8.480;2023-02-03T00:55:39;5.38;;;2.35;;
41629;SDS011;27322;49.488;8.480;2023-02-03T00:58:06;5.95;;;2.60;;
41629;SDS011;27322;49.488;8.480;2023-02-03T01:00:32;5.03;;;2.22;;
41629;SDS011;27322;49.488;8.480;2023-02-03T01:02:57;5.95;;;1.95;;
41629;SDS011;27322;49.488;8.480;2023-02-03T01:05:23;7.00;;;1.83;;
41629;SDS011;27322;49.488;8.480;2023-02-03T01:07:49;7.15;;;2.08;;
41629;SDS011;27322;49.488;8.480;2023-02-03T01:10:14;5.55;;;1.90;;
41629;SDS011;27322;49.488;8.480;2023-02-03T01:12:40;6.63;;;2.00;;
41629;SDS011;27322;49.488;8.480;2023-02-03T01:15:06;5.07;;;2.10;;
41629;SDS011;27322;49.488;8.480;2023-02-03T01:17:32;4.78;;;1.73;;
41629;SDS011;27322;49.488;8.480;2023-02-03T01:19:57;5.25;;;1.70;;
41629;SDS011;27322;49.488;8.480;2023-02-03T01:22:23;5.20;;;1.95;;
41629;SDS011;27322;49.488;8.480;2023-02-03T01:24:49;6.60;;;2.10;;
41629;SDS011;27322;49.488;8.480;2023-02-03T01:27:14;4.75;;;2.08;;
41629;SDS011;27322;49.488;8.480;2023-02-03T01:29:40;5.72;;;2.17;;
41629;SDS011;27322;49.488;8.480;2023-02-03T01:32:05;6.55;;;2.00;;
41629;SDS011;27322;49.488;8.480;2023-02-03T01:34:31;4.80;;;1.80;;
41629;SDS011;27322;49.488;8.480;2023-02-03T01:36:57;6.65;;;2.00;;
41629;SDS011;27322;49.488;8.480;2023-02-03T01:39:22;3.88;;;1.60;;
41629;SDS011;27322;49.488;8.480;2023-02-03T01:41:50;5.25;;;1.50;;
41629;SDS011;27322;49.488;8.480;2023-02-03T01:47:10;5.05;;;1.63;;
41629;SDS011;27322;49.488;8.480;2023-02-03T01:52:40;5.75;;;1.88;;
41629;SDS011;27322;49.488;8.480;2023-02-03T01:55:09;4.07;;;1.80;;
41629;SDS011;27322;49.488;8.480;2023-02-03T01:57:56;3.92;;;1.40;;
41629;SDS011;27322;49.488;8.480;2023-02-03T02:00:25;4.15;;;1.50;;
41629;SDS011;27322;49.488;8.480;2023-02-03T02:02:51;4.25;;;1.23;;
41629;SDS011;27322;49.488;8.480;2023-02-03T02:10:17;3.22;;;1.20;;
41629;SDS011;27322;49.488;8.480;2023-02-03T02:12:43;4.50;;;1.08;;
41629;SDS011;27322;49.488;8.480;2023-02-03T02:15:09;4.07;;;1.10;;
41629;SDS011;27322;49.488;8.480;2023-02-03T02:28:57;4.32;;;1.33;;
41629;SDS011;27322;49.488;8.480;2023-02-03T02:31:58;4.28;;;1.40;;
41629;SDS011;27322;49.488;8.480;2023-02-03T02:34:46;4.47;;;1.40;;
41629;SDS011;27322;49.488;8.480;2023-02-03T02:37:34;4.90;;;1.17;;
41629;SDS011;27322;49.488;8.480;2023-02-03T02:48:19;3.28;;;1.35;;
41629;SDS011;27322;49.488;8.480;2023-02-03T02:50:57;2.97;;;1.08;;
41629;SDS011;27322;49.488;8.480;2023-02-03T02:53:27;5.82;;;1.20;;
41629;SDS011;27322;49.488;8.480;2023-02-03T02:55:58;2.53;;;1.13;;
41629;SDS011;27322;49.488;8.480;2023-02-03T02:58:26;3.25;;;1.10;;
41629;SDS011;27322;49.488;8.480;2023-02-03T03:00:55;4.35;;;1.25;;
41629;SDS011;27322;49.488;8.480;2023-02-03T03:03:21;2.10;;;1.00;;
41629;SDS011;27322;49.488;8.480;2023-02-03T03:05:50;3.67;;;0.90;;
41629;SDS011;27322;49.488;8.480;2023-02-03T03:08:30;2.30;;;1.02;;
41629;SDS011;27322;49.488;8.480;2023-02-03T03:10:57;3.88;;;1.10;;
41629;SDS011;27322;49.488;8.480;2023-02-03T03:13:26;2.08;;;0.93;;
41629;SDS011;27322;49.488;8.480;2023-02-03T03:15:56;2.10;;;0.80;;
41629;SDS011;27322;49.488;8.480;2023-02-03T03:18:24;1.92;;;0.90;;
41629;SDS011;27322;49.488;8.480;2023-02-03T03:20:57;1.55;;;0.80;;
41629;SDS011;27322;49.488;8.480;2023-02-03T03:23:34;2.13;;;0.88;;
41629;SDS011;27322;49.488;8.480;2023-02-03T03:26:11;2.22;;;0.98;;
41629;SDS011;27322;49.488;8.480;2023-02-03T03:28:45;2.80;;;1.17;;
41629;SDS011;27322;49.488;8.480;2023-02-03T03:31:13;3.28;;;0.70;;
41629;SDS011;27322;49.488;8.480;2023-02-03T03:33:40;2.25;;;0.80;;
41629;SDS011;27322;49.488;8.480;2023-02-03T03:36:23;1.90;;;0.80;;
41629;SDS011;27322;49.488;8.480;2023-02-03T03:39:04;3.33;;;0.90;;
41629;SDS011;27322;49.488;8.480;2023-02-03T03:41:57;1.80;;;0.80;;
41629;SDS011;27322;49.488;8.480;2023-02-03T03:44:52;2.20;;;0.90;;
41629;SDS011;27322;49.488;8.480;2023-02-03T03:48:08;1.50;;;0.77;;
41629;SDS011;27322;49.488;8.480;2023-02-03T03:50:09;1.92;;;0.73;;
41629;SDS011;27322;49.488;8.480;2023-02-03T03:52:39;2.65;;;1.20;;
41629;SDS011;27322;49.488;8.480;2023-02-03T03:55:07;1.63;;;0.85;;
41629;SDS011;27322;49.488;8.480;2023-02-03T03:57:40;1.50;;;0.80;;
41629;SDS011;27322;49.488;8.480;2023-02-03T04:00:10;2.15;;;0.85;;
41629;SDS011;27322;49.488;8.480;2023-02-03T04:02:39;2.60;;;1.00;;
41629;SDS011;27322;49.488;8.480;2023-02-03T04:05:10;2.33;;;0.90;;
41629;SDS011;27322;49.488;8.480;2023-02-03T04:07:38;2.03;;;0.88;;
41629;SDS011;27322;49.488;8.480;2023-02-03T04:10:06;2.38;;;1.02;;
41629;SDS011;27322;49.488;8.480;2023-02-03T04:12:57;3.22;;;1.17;;
41629;SDS011;27322;49.488;8.480;2023-02-03T04:15:23;2.60;;;1.05;;
41629;SDS011;27322;49.488;8.480;2023-02-03T04:17:49;2.25;;;1.00;;
41629;SDS011;27322;49.488;8.480;2023-02-03T04:20:15;3.30;;;1.00;;
41629;SDS011;27322;49.488;8.480;2023-02-03T04:22:41;2.35;;;1.10;;
41629;SDS011;27322;49.488;8.480;2023-02-03T04:25:06;2.88;;;1.23;;
41629;SDS011;27322;49.488;8.480;2023-02-03T04:27:33;3.10;;;1.30;;
41629;SDS011;27322;49.488;8.480;2023-02-03T04:29:59;2.67;;;1.20;;
41629;SDS011;27322;49.488;8.480;2023-02-03T04:32:24;3.58;;;1.40;;
41629;SDS011;27322;49.488;8.480;2023-02-03T04:34:50;2.53;;;1.30;;
41629;SDS011;27322;49.488;8.480;2023-02-03T04:37:16;2.28;;;1.02;;
41629;SDS011;27322;49.488;8.480;2023-02-03T04:39:42;3.35;;;1.30;;
41629;SDS011;27322;49.488;8.480;2023-02-03T04:42:07;2.67;;;1.13;;
41629;SDS011;27322;49.488;8.480;2023-02-03T04:44:33;3.03;;;1.27;;
41629;SDS011;27322;49.488;8.480;2023-02-03T04:46:58;4.80;;;1.27;;
41629;SDS011;27322;49.488;8.480;2023-02-03T04:49:24;3.50;;;1.33;;
41629;SDS011;27322;49.488;8.480;2023-02-03T04:51:50;2.15;;;1.10;;
41629;SDS011;27322;49.488;8.480;2023-02-03T04:54:16;5.10;;;1.80;;
41629;SDS011;27322;49.488;8.480;2023-02-03T04:56:41;3.40;;;1.45;;
41629;SDS011;27322;49.488;8.480;2023-02-03T04:59:07;3.78;;;1.40;;
41629;SDS011;27322;49.488;8.480;2023-02-03T05:01:33;2.92;;;1.23;;
41629;SDS011;27322;49.488;8.480;2023-02-03T05:03:58;3.55;;;1.30;;
41629;SDS011;27322;49.488;8.480;2023-02-03T05:06:25;3.72;;;1.45;;
41629;SDS011;27322;49.488;8.480;2023-02-03T05:08:52;3.63;;;1.33;;
41629;SDS011;27322;49.488;8.480;2023-02-03T05:11:18;2.75;;;1.38;;
41629;SDS011;27322;49.488;8.480;2023-02-03T05:13:44;3.53;;;1.55;;
41629;SDS011;27322;49.488;8.480;2023-02-03T05:16:10;3.03;;;1.50;;
41629;SDS011;27322;49.488;8.480;2023-02-03T05:18:35;3.67;;;1.38;;
41629;SDS011;27322;49.488;8.480;2023-02-03T05:21:01;4.53;;;1.65;;
41629;SDS011;27322;49.488;8.480;2023-02-03T05:23:26;3.97;;;1.40;;
41629;SDS011;27322;49.488;8.480;2023-02-03T05:25:52;3.53;;;1.40;;
41629;SDS011;27322;49.488;8.480;2023-02-03T05:28:18;3.28;;;1.40;;
41629;SDS011;27322;49.488;8.480;2023-02-03T05:30:43;4.60;;;1.75;;
41629;SDS011;27322;49.488;8.480;2023-02-03T05:33:09;3.47;;;1.58;;
41629;SDS011;27322;49.488;8.480;2023-02-03T05:35:34;3.25;;;1.50;;
41629;SDS011;27322;49.488;8.480;2023-02-03T05:38:00;4.70;;;1.50;;
41629;SDS011;27322;49.488;8.480;2023-02-03T05:40:26;3.45;;;1.60;;
41629;SDS011;27322;49.488;8.480;2023-02-03T05:43:10;3.15;;;1.40;;
41629;SDS011;27322;49.488;8.480;2023-02-03T05:45:36;3.55;;;1.55;;
41629;SDS011;27322;49.488;8.480;2023-02-03T05:48:01;4.00;;;1.40;;
41629;SDS011;27322;49.488;8.480;2023-02-03T05:50:28;3.65;;;1.60;;
41629;SDS011;27322;49.488;8.480;2023-02-03T05:52:57;3.53;;;1.60;;
41629;SDS011;27322;49.488;8.480;2023-02-03T05:55:24;4.38;;;1.60;;
41629;SDS011;27322;49.488;8.480;2023-02-03T05:57:50;4.95;;;1.70;;
41629;SDS011;27322;49.488;8.480;2023-02-03T06:00:16;4.43;;;1.85;;
41629;SDS011;27322;49.488;8.480;2023-02-03T06:02:41;3.42;;;1.63;;
41629;SDS011;27322;49.488;8.480;2023-02-03T06:05:07;5.15;;;1.95;;
41629;SDS011;27322;49.488;8.480;2023-02-03T06:07:33;4.72;;;1.65;;
41629;SDS011;27322;49.488;8.480;2023-02-03T06:09:58;2.42;;;1.40;;
41629;SDS011;27322;49.488;8.480;2023-02-03T06:12:24;3.92;;;1.40;;
41629;SDS011;27322;49.488;8.480;2023-02-03T06:14:49;3.90;;;1.75;;
41629;SDS011;27322;49.488;8.480;2023-02-03T06:17:21;3.17;;;1.35;;
41629;SDS011;27322;49.488;8.480;2023-02-03T06:19:47;3.85;;;1.58;;
41629;SDS011;27322;49.488;8.480;2023-02-03T06:22:12;2.92;;;1.58;;
41629;SDS011;27322;49.488;8.480;2023-02-03T06:24:38;3.38;;;1.40;;
41629;SDS011;27322;49.488;8.480;2023-02-03T06:27:03;3.45;;;1.50;;
41629;SDS011;27322;49.488;8.480;2023-02-03T06:29:29;5.75;;;1.20;;
41629;SDS011;27322;49.488;8.480;2023-02-03T06:31:54;2.88;;;1.30;;
41629;SDS011;27322;49.488;8.480;2023-02-03T06:34:20;2.92;;;1.20;;
41629;SDS011;27322;49.488;8.480;2023-02-03T06:36:45;3.83;;;1.30;;
41629;SDS011;27322;49.488;8.480;2023-02-03T06:39:13;3.38;;;1.20;;
41629;SDS011;27322;49.488;8.480;2023-02-03T06:41:38;4.43;;;1.27;;
41629;SDS011;27322;49.488;8.480;2023-02-03T06:44:04;5.25;;;1.42;;
41629;SDS011;27322;49.488;8.480;2023-02-03T06:46:30;3.88;;;1.23;;
41629;SDS011;27322;49.488;8.480;2023-02-03T06:48:56;2.15;;;1.05;;
41629;SDS011;27322;49.488;8.480;2023-02-03T06:51:21;3.55;;;1.27;;
41629;SDS011;27322;49.488;8.480;2023-02-03T06:53:48;3.80;;;1.40;;
41629;SDS011;27322;49.488;8.480;2023-02-03T06:56:14;4.90;;;1.48;;
41629;SDS011;27322;49.488;8.480;2023-02-03T06:58:40;2.90;;;1.30;;
41629;SDS011;27322;49.488;8.480;2023-02-03T07:01:05;5.30;;;1.40;;
41629;SDS011;27322;49.488;8.480;2023-02-03T07:03:31;4.57;;;1.50;;
41629;SDS011;27322;49.488;8.480;2023-02-03T07:05:56;3.45;;;1.50;;
41629;SDS011;27322;49.488;8.480;2023-02-03T07:08:22;6.45;;;1.58;;
41629;SDS011;27322;49.488;8.480;2023-02-03T07:10:52;7.60;;;1.80;;
41629;SDS011;27322;49.488;8.480;2023-02-03T07:13:20;4.85;;;1.88;;
41629;SDS011;27322;49.488;8.480;2023-02-03T07:15:46;4.45;;;1.80;;
41629;SDS011;27322;49.488;8.480;2023-02-03T07:18:11;3.65;;;1.73;;
41629;SDS011;27322;49.488;8.480;2023-02-03T07:20:37;4.50;;;1.60;;
41629;SDS011;27322;49.488;8.480;2023-02-03T07:23:03;3.13;;;1.45;;
41629;SDS011;27322;49.488;8.480;2023-02-03T07:25:29;3.78;;;1.73;;
41629;SDS011;27322;49.488;8.480;2023-02-03T07:27:55;5.57;;;1.95;;
41629;SDS011;27322;49.488;8.480;2023-02-03T07:30:20;4.57;;;1.90;;
41629;SDS011;27322;49.488;8.480;2023-02-03T07:32:47;5.60;;;2.45;;
41629;SDS011;27322;49.488;8.480;2023-02-03T07:35:13;9.15;;;2.95;;
41629;SDS011;27322;49.488;8.480;2023-02-03T07:37:39;5.85;;;2.03;;
41629;SDS011;27322;49.488;8.480;2023-02-03T07:40:05;5.22;;;1.95;;
41629;SDS011;27322;49.488;8.480;2023-02-03T07:42:31;3.75;;;1.88;;
41629;SDS011;27322;49.488;8.480;2023-02-03T07:44:57;4.80;;;1.70;;
41629;SDS011;27322;49.488;8.480;2023-02-03T07:47:22;3.60;;;1.75;;
41629;SDS011;27322;49.488;8.480;2023-02-03T07:49:48;4.55;;;2.03;;
41629;SDS011;27322;49.488;8.480;2023-02-03T07:52:13;4.18;;;2.10;;
41629;SDS011;27322;49.488;8.480;2023-02-03T07:54:39;5.05;;;1.95;;
41629;SDS011;27322;49.488;8.480;2023-02-03T07:57:05;4.88;;;1.80;;
41629;SDS011;27322;49.488;8.480;2023-02-03T07:59:30;4.15;;;1.92;;
41629;SDS011;27322;49.488;8.480;2023-02-03T08:01:56;4.10;;;1.80;;
41629;SDS011;27322;49.488;8.480;2023-02-03T08:04:21;5.97;;;2.00;;
41629;SDS011;27322;49.488;8.480;2023-02-03T08:06:48;4.47;;;1.80;;
41629;SDS011;27322;49.488;8.480;2023-02-03T08:09:14;3.80;;;1.52;;
41629;SDS011;27322;49.488;8.480;2023-02-03T08:11:40;3.70;;;1.70;;
41629;SDS011;27322;49.488;8.480;2023-02-03T08:14:05;3.25;;;1.60;;
41629;SDS011;27322;49.488;8.480;2023-02-03T08:16:31;3.92;;;1.80;;
41629;SDS011;27322;49.488;8.480;2023-02-03T08:18:56;3.70;;;1.63;;
41629;SDS011;27322;49.488;8.480;2023-02-03T08:21:22;3.15;;;1.30;;
41629;SDS011;27322;49.488;8.480;2023-02-03T08:23:48;2.38;;;1.05;;
41629;SDS011;27322;49.488;8.480;2023-02-03T08:26:13;15.40;;;1.90;;
41629;SDS011;27322;49.488;8.480;2023-02-03T08:28:39;4.50;;;1.42;;
41629;SDS011;27322;49.488;8.480;2023-02-03T08:31:08;2.70;;;1.17;;
41629;SDS011;27322;49.488;8.480;2023-02-03T08:33:35;3.42;;;0.98;;
41629;SDS011;27322;49.488;8.480;2023-02-03T08:36:00;2.67;;;1.02;;
41629;SDS011;27322;49.488;8.480;2023-02-03T08:38:27;3.58;;;1.02;;
41629;SDS011;27322;49.488;8.480;2023-02-03T08:40:56;3.72;;;1.10;;
41629;SDS011;27322;49.488;8.480;2023-02-03T08:43:21;2.58;;;1.08;;
41629;SDS011;27322;49.488;8.480;2023-02-03T08:45:47;5.03;;;1.17;;
41629;SDS011;27322;49.488;8.480;2023-02-03T08:48:12;4.47;;;1.17;;
41629;SDS011;27322;49.488;8.480;2023-02-03T08:50:40;3.78;;;1.35;;
41629;SDS011;27322;49.488;8.480;2023-02-03T08:53:08;4.22;;;1.40;;
41629;SDS011;27322;49.488;8.480;2023-02-03T08:55:37;2.88;;;1.20;;
41629;SDS011;27322;49.488;8.480;2023-02-03T08:58:03;2.97;;;1.08;;
41629;SDS011;27322;49.488;8.480;2023-02-03T09:00:28;2.45;;;1.00;;
41629;SDS011;27322;49.488;8.480;2023-02-03T09:02:54;2.65;;;1.00;;
41629;SDS011;27322;49.488;8.480;2023-02-03T09:05:20;4.45;;;1.23;;
41629;SDS011;27322;49.488;8.480;2023-02-03T09:07:46;3.25;;;1.30;;
41629;SDS011;27322;49.488;8.480;2023-02-03T09:10:11;2.63;;;1.00;;
41629;SDS011;27322;49.488;8.480;2023-02-03T09:12:37;4.10;;;1.23;;
41629;SDS011;27322;49.488;8.480;2023-02-03T09:15:03;4.85;;;0.93;;
41629;SDS011;27322;49.488;8.480;2023-02-03T09:17:29;3.35;;;1.05;;
41629;SDS011;27322;49.488;8.480;2023-02-03T09:19:54;2.65;;;0.90;;
41629;SDS011;27322;49.488;8.480;2023-02-03T09:22:20;2.03;;;0.90;;
41629;SDS011;27322;49.488;8.480;2023-02-03T09:24:45;3.70;;;1.20;;
41629;SDS011;27322;49.488;8.480;2023-02-03T09:27:14;2.47;;;0.98;;
41629;SDS011;27322;49.488;8.480;2023-02-03T09:29:40;3.72;;;1.15;;
41629;SDS011;27322;49.488;8.480;2023-02-03T09:32:05;2.80;;;1.10;;
41629;SDS011;27322;49.488;8.480;2023-02-03T09:34:34;3.08;;;0.80;;
41629;SDS011;27322;49.488;8.480;2023-02-03T09:37:00;3.63;;;1.20;;
41629;SDS011;27322;49.488;8.480;2023-02-03T09:39:25;4.82;;;1.25;;
41629;SDS011;27322;49.488;8.480;2023-02-03T09:47:33;3.88;;;0.70;;
41629;SDS011;27322;49.488;8.480;2023-02-03T09:50:02;2.28;;;0.70;;
41629;SDS011;27322;49.488;8.480;2023-02-03T09:52:36;4.38;;;1.10;;
41629;SDS011;27322;49.488;8.480;2023-02-03T09:58:02;4.22;;;0.90;;
41629;SDS011;27322;49.488;8.480;2023-02-03T10:00:47;3.78;;;0.90;;
41629;SDS011;27322;49.488;8.480;2023-02-03T10:03:18;5.55;;;1.23;;
41629;SDS011;27322;49.488;8.480;2023-02-03T10:22:31;4.40;;;1.00;;
41629;SDS011;27322;49.488;8.480;2023-02-03T10:25:03;7.55;;;1.17;;
41629;SDS011;27322;49.488;8.480;2023-02-03T10:27:36;2.63;;;1.00;;
41629;SDS011;27322;49.488;8.480;2023-02-03T10:30:19;4.75;;;0.85;;
41629;SDS011;27322;49.488;8.480;2023-02-03T10:32:53;1.95;;;0.80;;
41629;SDS011;27322;49.488;8.480;2023-02-03T10:35:23;3.05;;;1.00;;
41629;SDS011;27322;49.488;8.480;2023-02-03T10:37:58;2.47;;;0.80;;
41629;SDS011;27322;49.488;8.480;2023-02-03T10:40:24;2.90;;;0.93;;
41629;SDS011;27322;49.488;8.480;2023-02-03T10:42:52;4.72;;;1.00;;
41629;SDS011;27322;49.488;8.480;2023-02-03T10:45:37;1.98;;;0.80;;
41629;SDS011;27322;49.488;8.480;2023-02-03T10:48:03;3.10;;;1.20;;
41629;SDS011;27322;49.488;8.480;2023-02-03T10:50:35;3.63;;;1.10;;
41629;SDS011;27322;49.488;8.480;2023-02-03T10:55:50;4.30;;;0.90;;
41629;SDS011;27322;49.488;8.480;2023-02-03T10:58:37;3.55;;;0.88;;
41629;SDS011;27322;49.488;8.480;2023-02-03T11:03:30;3.22;;;0.90;;
41629;SDS011;27322;49.488;8.480;2023-02-03T11:06:02;3.22;;;0.88;;
41629;SDS011;27322;49.488;8.480;2023-02-03T11:08:29;4.32;;;1.10;;
41629;SDS011;27322;49.488;8.480;2023-02-03T11:11:03;10.85;;;1.77;;
41629;SDS011;27322;49.488;8.480;2023-02-03T11:13:31;6.47;;;1.40;;
41629;SDS011;27322;49.488;8.480;2023-02-03T11:16:00;3.97;;;1.05;;
41629;SDS011;27322;49.488;8.480;2023-02-03T11:23:42;1.92;;;0.90;;
41629;SDS011;27322;49.488;8.480;2023-02-03T11:26:11;2.90;;;1.00;;
41629;SDS011;27322;49.488;8.480;2023-02-03T11:28:42;3.70;;;1.20;;
41629;SDS011;27322;49.488;8.480;2023-02-03T11:31:17;1.65;;;0.52;;
41629;SDS011;27322;49.488;8.480;2023-02-03T11:33:56;1.25;;;0.60;;
41629;SDS011;27322;49.488;8.480;2023-02-03T11:36:39;2.38;;;0.70;;
41629;SDS011;27322;49.488;8.480;2023-02-03T11:41:46;2.10;;;0.73;;
41629;SDS011;27322;49.488;8.480;2023-02-03T11:44:17;2.20;;;0.85;;
41629;SDS011;27322;49.488;8.480;2023-02-03T11:49:37;3.30;;;0.90;;
41629;SDS011;27322;49.488;8.480;2023-02-03T12:06:52;2.08;;;0.65;;
41629;SDS011;27322;49.488;8.480;2023-02-03T12:19:57;1.17;;;0.60;;
41629;SDS011;27322;49.488;8.480;2023-02-03T12:25:08;3.80;;;0.80;;
41629;SDS011;27322;49.488;8.480;2023-02-03T12:30:48;1.30;;;0.47;;
41629;SDS011;27322;49.488;8.480;2023-02-03T12:36:04;2.28;;;0.73;;
41629;SDS011;27322;49.488;8.480;2023-02-03T12:41:08;1.08;;;0.60;;
41629;SDS011;27322;49.488;8.480;2023-02-03T12:43:45;3.83;;;0.95;;
41629;SDS011;27322;49.488;8.480;2023-02-03T12:49:56;2.25;;;0.60;;
41629;SDS011;27322;49.488;8.480;2023-02-03T12:58:02;1.90;;;0.60;;
41629;SDS011;27322;49.488;8.480;2023-02-03T13:20:35;3.03;;;0.73;;
41629;SDS011;27322;49.488;8.480;2023-02-03T13:23:05;2.22;;;0.60;;
41629;SDS011;27322;49.488;8.480;2023-02-03T13:44:40;1.38;;;0.40;;
41629;SDS011;27322;49.488;8.480;2023-02-03T13:47:17;0.82;;;0.40;;
41629;SDS011;27322;49.488;8.480;2023-02-03T13:49:49;1.17;;;0.50;;
41629;SDS011;27322;49.488;8.480;2023-02-03T13:52:23;3.70;;;0.50;;
41629;SDS011;27322;49.488;8.480;2023-02-03T13:55:19;1.63;;;0.55;;
41629;SDS011;27322;49.488;8.480;2023-02-03T13:58:00;1.45;;;0.50;;
41629;SDS011;27322;49.488;8.480;2023-02-03T14:05:53;1.10;;;0.50;;
41629;SDS011;27322;49.488;8.480;2023-02-03T14:16:36;3.65;;;0.60;;
41629;SDS011;27322;49.488;8.480;2023-02-03T14:19:04;2.50;;;0.70;;
41629;SDS011;27322;49.488;8.480;2023-02-03T14:21:41;2.47;;;0.55;;
41629;SDS011;27322;49.488;8.480;2023-02-03T14:24:13;2.25;;;0.50;;
41629;SDS011;27322;49.488;8.480;2023-02-03T14:29:22;3.35;;;0.60;;
41629;SDS011;27322;49.488;8.480;2023-02-03T14:37:09;1.77;;;0.65;;
41629;SDS011;27322;49.488;8.480;2023-02-03T14:47:56;1.42;;;0.50;;
41629;SDS011;27322;49.488;8.480;2023-02-03T14:50:45;1.95;;;0.60;;
41629;SDS011;27322;49.488;8.480;2023-02-03T14:53:37;2.67;;;0.70;;
41629;SDS011;27322;49.488;8.480;2023-02-03T14:58:47;1.55;;;0.70;;
41629;SDS011;27322;49.488;8.480;2023-02-03T15:06:36;1.35;;;0.57;;
41629;SDS011;27322;49.488;8.480;2023-02-03T15:09:44;1.33;;;0.57;;
41629;SDS011;27322;49.488;8.480;2023-02-03T15:12:19;1.02;;;0.57;;
41629;SDS011;27322;49.488;8.480;2023-02-03T15:14:48;3.28;;;0.60;;
41629;SDS011;27322;49.488;8.480;2023-02-03T15:19:51;1.98;;;0.70;;
41629;SDS011;27322;49.488;8.480;2023-02-03T15:22:27;1.30;;;0.60;;
41629;SDS011;27322;49.488;8.480;2023-02-03T15:24:55;0.95;;;0.50;;
41629;SDS011;27322;49.488;8.480;2023-02-03T15:27:28;2.28;;;0.70;;
41629;SDS011;27322;49.488;8.480;2023-02-03T15:29:55;1.05;;;0.50;;
41629;SDS011;27322;49.488;8.480;2023-02-03T15:34:53;1.88;;;0.60;;
41629;SDS011;27322;49.488;8.480;2023-02-03T15:37:23;1.45;;;0.70;;
41629;SDS011;27322;49.488;8.480;2023-02-03T15:42:36;2.00;;;0.60;;
41629;SDS011;27322;49.488;8.480;2023-02-03T15:45:26;1.27;;;0.60;;
41629;SDS011;27322;49.488;8.480;2023-02-03T15:50:28;1.73;;;0.70;;
41629;SDS011;27322;49.488;8.480;2023-02-03T15:53:21;1.17;;;0.50;;
41629;SDS011;27322;49.488;8.480;2023-02-03T15:55:52;0.88;;;0.40;;
41629;SDS011;27322;49.488;8.480;2023-02-03T15:58:25;2.17;;;0.40;;
41629;SDS011;27322;49.488;8.480;2023-02-03T16:00:53;1.13;;;0.50;;
41629;SDS011;27322;49.488;8.480;2023-02-03T16:03:42;0.95;;;0.47;;
41629;SDS011;27322;49.488;8.480;2023-02-03T16:08:51;1.58;;;0.68;;
41629;SDS011;27322;49.488;8.480;2023-02-03T16:13:52;1.35;;;0.68;;
41629;SDS011;27322;49.488;8.480;2023-02-03T16:18:50;1.83;;;0.70;;
41629;SDS011;27322;49.488;8.480;2023-02-03T16:21:42;2.58;;;0.60;;
41629;SDS011;27322;49.488;8.480;2023-02-03T16:29:51;1.10;;;0.60;;
41629;SDS011;27322;49.488;8.480;2023-02-03T16:32:36;3.10;;;0.70;;
41629;SDS011;27322;49.488;8.480;2023-02-03T16:35:21;1.33;;;0.60;;
41629;SDS011;27322;49.488;8.480;2023-02-03T16:38:07;1.73;;;0.70;;
41629;SDS011;27322;49.488;8.480;2023-02-03T16:40:57;0.95;;;0.60;;
41629;SDS011;27322;49.488;8.480;2023-02-03T16:43:41;1.70;;;0.70;;
41629;SDS011;27322;49.488;8.480;2023-02-03T16:46:25;1.45;;;0.50;;
41629;SDS011;27322;49.488;8.480;2023-02-03T16:49:09;1.40;;;0.70;;
41629;SDS011;27322;49.488;8.480;2023-02-03T16:51:53;1.63;;;0.77;;
41629;SDS011;27322;49.488;8.480;2023-02-03T16:54:19;2.72;;;0.70;;
41629;SDS011;27322;49.488;8.480;2023-02-03T16:56:44;1.40;;;0.70;;
41629;SDS011;27322;49.488;8.480;2023-02-03T16:59:11;1.20;;;0.60;;
41629;SDS011;27322;49.488;8.480;2023-02-03T17:01:37;1.70;;;0.90;;
41629;SDS011;27322;49.488;8.480;2023-02-03T17:04:03;1.65;;;0.75;;
41629;SDS011;27322;49.488;8.480;2023-02-03T17:06:29;1.75;;;0.88;;
41629;SDS011;27322;49.488;8.480;2023-02-03T17:08:54;1.92;;;0.70;;
41629;SDS011;27322;49.488;8.480;2023-02-03T17:11:21;2.33;;;0.80;;
41629;SDS011;27322;49.488;8.480;2023-02-03T17:13:48;3.30;;;0.95;;
41629;SDS011;27322;49.488;8.480;2023-02-03T17:16:18;2.65;;;0.85;;
41629;SDS011;27322;49.488;8.480;2023-02-03T17:18:45;2.38;;;1.05;;
41629;SDS011;27322;49.488;8.480;2023-02-03T17:21:15;1.80;;;0.90;;
41629;SDS011;27322;49.488;8.480;2023-02-03T17:23:43;2.63;;;1.20;;
41629;SDS011;27322;49.488;8.480;2023-02-03T17:26:09;1.92;;;0.90;;
41629;SDS011;27322;49.488;8.480;2023-02-03T17:28:35;3.63;;;0.98;;
41629;SDS011;27322;49.488;8.480;2023-02-03T17:31:03;2.03;;;0.95;;
41629;SDS011;27322;49.488;8.480;2023-02-03T17:33:30;3.50;;;1.25;;
41629;SDS011;27322;49.488;8.480;2023-02-03T17:36:02;1.98;;;1.00;;
41629;SDS011;27322;49.488;8.480;2023-02-03T17:38:41;1.70;;;0.80;;
41629;SDS011;27322;49.488;8.480;2023-02-03T17:41:08;2.45;;;1.10;;
41629;SDS011;27322;49.488;8.480;2023-02-03T17:43:34;1.42;;;0.90;;
41629;SDS011;27322;49.488;8.480;2023-02-03T17:46:00;2.13;;;1.10;;
41629;SDS011;27322;49.488;8.480;2023-02-03T17:48:25;2.40;;;1.15;;
41629;SDS011;27322;49.488;8.480;2023-02-03T17:50:51;2.05;;;1.00;;
41629;SDS011;27322;49.488;8.480;2023-02-03T17:53:16;1.67;;;0.90;;
41629;SDS011;27322;49.488;8.480;2023-02-03T17:55:42;2.42;;;1.00;;
41629;SDS011;27322;49.488;8.480;2023-02-03T17:58:08;2.17;;;1.00;;
41629;SDS011;27322;49.488;8.480;2023-02-03T18:00:33;2.80;;;1.10;;
41629;SDS011;27322;49.488;8.480;2023-02-03T18:02:59;1.70;;;0.85;;
41629;SDS011;27322;49.488;8.480;2023-02-03T18:05:25;2.33;;;1.10;;
41629;SDS011;27322;49.488;8.480;2023-02-03T18:07:50;2.90;;;0.95;;
41629;SDS011;27322;49.488;8.480;2023-02-03T18:10:16;1.80;;;0.80;;
41629;SDS011;27322;49.488;8.480;2023-02-03T18:12:42;1.95;;;1.00;;
41629;SDS011;27322;49.488;8.480;2023-02-03T18:15:08;2.42;;;1.00;;
41629;SDS011;27322;49.488;8.480;2023-02-03T18:17:33;1.60;;;0.90;;
41629;SDS011;27322;49.488;8.480;2023-02-03T18:19:59;1.90;;;0.90;;
41629;SDS011;27322;49.488;8.480;2023-02-03T18:22:25;2.08;;;1.00;;
41629;SDS011;27322;49.488;8.480;2023-02-03T18:24:51;1.70;;;0.88;;
41629;SDS011;27322;49.488;8.480;2023-02-03T18:27:17;2.75;;;1.20;;
41629;SDS011;27322;49.488;8.480;2023-02-03T18:29:43;2.53;;;1.10;;
41629;SDS011;27322;49.488;8.480;2023-02-03T18:32:10;2.47;;;1.20;;
41629;SDS011;27322;49.488;8.480;2023-02-03T18:34:37;2.10;;;1.00;;
41629;SDS011;27322;49.488;8.480;2023-02-03T18:37:03;2.72;;;1.15;;
41629;SDS011;27322;49.488;8.480;2023-02-03T18:39:28;2.03;;;0.98;;